Terminal Aerodrome Forecast
Issued by NWS

Home | Current Version | Previous Version | Text Only | Print | Product List | Glossary On
Versions: 1 2 3 4 5 6 7 8 9 10 11 12 13 14 15 16 17 18 19 20 21 22 23 24 25
000
FTUS45 KPSR 260239 AAA
TAFPHX
TAF AMD
KPHX 260239Z 2603/2624 24014G25KT P6SM FEW120
     FM260700 26010KT P6SM FEW120
     FM261000 14006KT P6SM SKC
     FM261700 25009G18KT P6SM SKC=

USA.gov is the U.S. government's official web portal to all federal, state and local government web resources and services.